Time;durP1;ratioP1;P1;durP2;ratioP2;P2;SDS_P1;SDS_P2;PMS_P1;PMS_P2;Temp;Humidity;BMP_temperature;BMP_pressure;BME280_temperature;BME280_humidity;BME280_pressure;Samples;Min_cycle;Max_cycle;Signal;HPM_P1;HPM_P2
2023/09/19 00:01:40;;;;;;;4.93;1.90;;;;;;;13.83;100.00;100693.09;4996454;28;20074;-81
2023/09/19 00:04:09;;;;;;;3.58;1.63;;;;;;;13.83;100.00;100698.31;4995704;28;20057;-82
2023/09/19 00:06:35;;;;;;;5.70;1.67;;;;;;;13.81;100.00;100697.50;4996745;28;20032;-81
2023/09/19 00:09:00;;;;;;;3.13;1.50;;;;;;;13.83;100.00;100703.53;4996469;28;20097;-81
2023/09/19 00:11:26;;;;;;;5.03;2.00;;;;;;;13.82;100.00;100712.28;4995646;28;20471;-81
2023/09/19 00:13:52;;;;;;;7.93;2.53;;;;;;;13.74;100.00;100702.06;4996471;28;20022;-80
2023/09/19 00:16:19;;;;;;;3.67;1.60;;;;;;;13.79;100.00;100715.81;4996719;28;20088;-81
2023/09/19 00:18:45;;;;;;;3.90;1.70;;;;;;;13.77;100.00;100716.75;4995822;28;20027;-81
2023/09/19 00:21:10;;;;;;;4.87;1.60;;;;;;;13.77;100.00;100721.97;4996099;28;20426;-80
2023/09/19 00:23:40;;;;;;;2.83;1.40;;;;;;;13.76;100.00;100723.75;5005303;28;20554;-81
2023/09/19 00:26:06;;;;;;;5.32;1.70;;;;;;;13.71;100.00;100720.41;5015425;28;20041;-81
2023/09/19 00:28:32;;;;;;;3.70;1.67;;;;;;;13.69;100.00;100728.28;5016044;28;20025;-80
2023/09/19 00:31:01;;;;;;;4.43;1.90;;;;;;;13.63;100.00;100723.25;5015941;28;20108;-80
2023/09/19 00:33:29;;;;;;;3.70;1.65;;;;;;;13.66;100.00;100737.97;5015134;28;20037;-80
2023/09/19 00:35:56;;;;;;;2.35;1.50;;;;;;;13.64;100.00;100735.38;5015515;28;20079;-81
2023/09/19 00:38:24;;;;;;;6.18;1.92;;;;;;;13.62;100.00;100742.41;5015740;28;20053;-81
2023/09/19 00:40:53;;;;;;;5.20;2.10;;;;;;;13.63;100.00;100741.50;5014887;28;20037;-80
2023/09/19 00:43:19;;;;;;;4.30;1.80;;;;;;;13.61;100.00;100732.00;5015335;28;20022;-81
2023/09/19 00:45:48;;;;;;;2.70;1.50;;;;;;;13.59;100.00;100742.50;5016306;28;20030;-81
2023/09/19 00:48:13;;;;;;;4.80;1.80;;;;;;;13.59;100.00;100747.72;5015044;28;20037;-80
2023/09/19 00:50:42;;;;;;;3.77;1.80;;;;;;;13.57;100.00;100755.56;5015113;28;20038;-80
2023/09/19 00:53:08;;;;;;;6.43;1.90;;;;;;;13.52;100.00;100761.81;5013159;28;20925;-81
2023/09/19 00:55:34;;;;;;;8.20;2.33;;;;;;;13.45;100.00;100761.16;5015232;28;20101;-81
2023/09/19 00:58:00;;;;;;;7.40;2.10;;;;;;;13.40;100.00;100756.06;5015465;28;20030;-80
2023/09/19 01:00:26;;;;;;;4.35;2.00;;;;;;;13.37;100.00;100752.66;5014359;28;20430;-81
2023/09/19 01:02:54;;;;;;;5.50;1.97;;;;;;;13.43;100.00;100776.00;5015126;28;20030;-80
2023/09/19 01:05:21;;;;;;;2.88;1.70;;;;;;;13.36;100.00;100770.06;5014853;28;20030;-81
2023/09/19 01:07:48;;;;;;;2.87;1.63;;;;;;;13.39;100.00;100780.44;5014346;28;20028;-80
2023/09/19 01:10:16;;;;;;;6.03;1.98;;;;;;;13.38;100.00;100783.91;5014646;28;20026;-81
2023/09/19 01:13:04;;;;;;;4.50;1.95;;;;;;;13.37;100.00;100783.94;5015279;28;20029;-81
2023/09/19 01:15:36;;;;;;;5.07;2.00;;;;;;;13.33;100.00;100788.38;4994483;28;20065;-80
2023/09/19 01:18:21;;;;;;;4.10;1.70;;;;;;;13.31;100.00;100787.56;4995480;28;20113;-80
2023/09/19 01:21:05;;;;;;;5.13;2.08;;;;;;;13.28;100.00;100788.50;4995249;28;20034;-81
2023/09/19 01:24:09;;;;;;;6.55;2.10;;;;;;;13.27;100.00;100788.56;4995322;28;20049;-81
2023/09/19 01:27:11;;;;;;;6.13;1.98;;;;;;;13.20;100.00;100793.09;4974559;28;20042;-80
2023/09/19 01:29:39;;;;;;;4.45;1.90;;;;;;;13.22;100.00;100796.50;4995303;28;20030;-80
2023/09/19 01:32:06;;;;;;;5.63;1.83;;;;;;;13.20;100.00;100792.22;4994721;28;20037;-81
2023/09/19 01:34:52;;;;;;;5.20;1.85;;;;;;;13.18;100.00;100794.88;4995055;28;20052;-80
2023/09/19 01:37:20;;;;;;;5.20;1.90;;;;;;;13.16;100.00;100801.88;4994441;28;20027;-80
2023/09/19 01:39:48;;;;;;;7.05;2.00;;;;;;;13.13;100.00;100807.16;4995251;28;20034;-80
2023/09/19 01:42:35;;;;;;;8.25;2.08;;;;;;;13.12;100.00;100811.53;4993952;28;20034;-81
2023/09/19 01:45:13;;;;;;;2.20;1.63;;;;;;;13.10;100.00;100804.66;4995103;28;20038;-81
2023/09/19 01:47:50;;;;;;;7.13;1.88;;;;;;;13.09;100.00;100806.38;4994433;28;20506;-81
2023/09/19 01:50:44;;;;;;;3.22;1.70;;;;;;;13.10;100.00;100809.88;4993534;28;20038;-81
2023/09/19 01:53:33;;;;;;;2.97;1.70;;;;;;;13.08;100.00;100807.28;4995221;28;20096;-81
2023/09/19 01:56:01;;;;;;;2.72;1.35;;;;;;;13.08;100.00;100812.50;4994462;28;20497;-80
2023/09/19 01:58:39;;;;;;;5.78;2.03;;;;;;;13.07;99.81;100808.16;4994270;28;20041;-80
2023/09/19 02:01:08;;;;;;;9.93;2.30;;;;;;;13.01;99.68;100802.25;4994037;28;20081;-80
2023/09/19 02:03:35;;;;;;;5.88;2.20;;;;;;;13.03;99.81;100800.47;4993789;28;20050;-80
2023/09/19 02:06:03;;;;;;;5.75;1.95;;;;;;;13.00;99.96;100801.41;4994449;28;20034;-80
2023/09/19 02:08:29;;;;;;;4.25;1.88;;;;;;;12.97;99.83;100807.56;5000566;28;20025;-81
2023/09/19 02:10:54;;;;;;;6.00;1.90;;;;;;;12.95;99.39;100798.94;5013382;28;20586;-81
2023/09/19 02:13:21;;;;;;;7.40;2.20;;;;;;;12.92;98.15;100805.97;5013823;28;20026;-81
2023/09/19 02:15:46;;;;;;;6.35;2.10;;;;;;;12.94;98.57;100809.41;5014219;28;20431;-81
2023/09/19 02:18:12;;;;;;;3.43;1.97;;;;;;;12.92;98.06;100803.38;5012931;28;20049;-81
2023/09/19 02:20:39;;;;;;;5.22;2.00;;;;;;;12.92;98.45;100804.22;5013724;28;20014;-81
2023/09/19 02:23:05;;;;;;;4.88;1.92;;;;;;;12.92;98.21;100809.44;5013538;28;20049;-80
2023/09/19 02:25:33;;;;;;;5.37;2.30;;;;;;;12.90;98.04;100808.59;5013123;28;20060;-80
2023/09/19 02:27:58;;;;;;;2.67;1.50;;;;;;;12.85;97.97;100799.19;5013876;28;20026;-80
2023/09/19 02:30:25;;;;;;;5.07;2.00;;;;;;;12.87;98.31;100803.50;5013356;28;20386;-81
2023/09/19 02:32:51;;;;;;;3.45;1.42;;;;;;;12.85;98.24;100814.81;5012768;28;20018;-80
2023/09/19 02:35:19;;;;;;;2.13;1.47;;;;;;;12.83;98.35;100820.09;5013230;28;20109;-80
2023/09/19 02:37:45;;;;;;;4.40;1.83;;;;;;;12.78;98.20;100815.00;5013590;28;20486;-80
2023/09/19 02:40:18;;;;;;;1.47;1.27;;;;;;;12.78;98.14;100815.00;5012364;28;20072;-81
2023/09/19 02:42:51;;;;;;;3.28;1.35;;;;;;;12.76;98.40;100819.38;5013301;28;20069;-80
2023/09/19 02:45:20;;;;;;;5.78;1.90;;;;;;;12.71;97.49;100808.25;5013454;28;20022;-80
2023/09/19 02:47:46;;;;;;;3.55;1.90;;;;;;;12.72;97.97;100822.94;5013237;28;20057;-80
2023/09/19 02:50:13;;;;;;;2.70;1.88;;;;;;;12.70;98.03;100813.47;5012911;28;20044;-80
2023/09/19 02:52:38;;;;;;;3.65;1.45;;;;;;;12.65;97.33;100817.06;5012641;28;20204;-80
2023/09/19 02:55:05;;;;;;;3.07;1.73;;;;;;;12.65;97.52;100829.19;5012941;28;20510;-80
2023/09/19 02:57:33;;;;;;;4.20;1.83;;;;;;;12.58;97.44;100819.84;5011705;28;20055;-80
2023/09/19 03:00:00;;;;;;;5.13;1.80;;;;;;;12.59;97.20;100824.16;5011411;28;20057;-81
2023/09/19 03:02:27;;;;;;;;;;;;;;;12.56;96.14;100827.66;5008205;28;20411;-81
2023/09/19 03:04:53;;;;;;;5.40;1.90;;;;;;;12.51;96.85;100819.97;4993564;28;19917;-80
2023/09/19 03:07:18;;;;;;;4.03;1.60;;;;;;;12.55;96.93;100825.09;4992799;28;20494;-81
2023/09/19 03:09:44;;;;;;;3.10;1.83;;;;;;;12.49;96.65;100826.97;4993443;28;20031;-80
2023/09/19 03:12:10;;;;;;;3.55;1.70;;;;;;;12.52;96.75;100837.31;4993510;28;20078;-80
2023/09/19 03:14:35;;;;;;;3.33;1.60;;;;;;;12.51;96.65;100827.78;4992717;28;20022;-80
2023/09/19 03:17:04;;;;;;;2.23;1.13;;;;;;;12.50;97.21;100827.81;4993341;28;20081;-80
2023/09/19 03:19:30;;;;;;;2.80;1.25;;;;;;;12.47;95.87;100825.28;4993366;28;20081;-80
2023/09/19 03:21:57;;;;;;;2.67;1.65;;;;;;;12.46;96.51;100827.06;4993047;28;20049;-80
2023/09/19 03:24:23;;;;;;;2.55;1.45;;;;;;;12.38;96.71;100815.09;4993103;28;20045;-80
2023/09/19 03:26:48;;;;;;;2.50;1.33;;;;;;;12.46;96.59;100841.78;4993138;28;20022;-81
2023/09/19 03:29:13;;;;;;;2.50;1.30;;;;;;;12.41;97.14;100825.44;4992323;28;20023;-80
2023/09/19 03:31:39;;;;;;;5.47;1.83;;;;;;;12.35;95.99;100818.63;4992793;28;20027;-81
2023/09/19 03:34:04;;;;;;;2.83;1.70;;;;;;;12.38;96.15;100821.19;4993232;28;20077;-80
2023/09/19 03:36:30;;;;;;;3.20;1.50;;;;;;;12.41;96.36;100828.88;4993769;28;20061;-80
2023/09/19 03:38:55;;;;;;;2.93;1.40;;;;;;;12.37;95.97;100824.66;4993120;28;20041;-80
2023/09/19 03:41:21;;;;;;;2.03;1.37;;;;;;;12.39;96.37;100825.47;4992880;28;20026;-80
2023/09/19 03:43:46;;;;;;;1.97;1.20;;;;;;;12.37;96.31;100827.25;4992488;28;20030;-80
2023/09/19 03:46:15;;;;;;;2.87;1.40;;;;;;;12.36;96.21;100815.16;4992912;28;20515;-80
2023/09/19 03:48:40;;;;;;;3.38;1.33;;;;;;;12.34;96.49;100815.16;4992465;28;20105;-80
2023/09/19 03:51:05;;;;;;;3.97;1.60;;;;;;;12.32;96.42;100821.31;4992758;28;20427;-80
2023/09/19 03:53:31;;;;;;;5.73;1.70;;;;;;;12.31;96.03;100810.03;4993140;28;20022;-80
2023/09/19 03:55:57;;;;;;;5.10;2.00;;;;;;;12.31;96.18;100807.44;4992253;28;20442;-80
2023/09/19 03:58:22;;;;;;;3.50;1.60;;;;;;;12.34;96.84;100825.56;4993125;28;20039;-80
2023/09/19 04:00:49;;;;;;;4.90;1.93;;;;;;;12.33;96.24;100812.59;4992759;28;20325;-80
2023/09/19 04:03:20;;;;;;;4.30;1.90;;;;;;;12.37;96.37;100814.25;4992085;28;20026;-80
2023/09/19 04:05:46;;;;;;;4.20;1.60;;;;;;;12.33;95.88;100805.63;4993283;28;20080;-81
2023/09/19 04:08:12;;;;;;;2.53;1.70;;;;;;;12.41;96.64;100815.88;4992575;28;20025;-80
2023/09/19 04:10:37;;;;;;;3.20;1.30;;;;;;;12.41;96.72;100810.66;4992336;28;20031;-80
2023/09/19 04:13:03;;;;;;;6.27;2.00;;;;;;;12.38;96.27;100813.38;4996215;28;20467;-81
2023/09/19 04:15:29;;;;;;;5.25;1.80;;;;;;;12.42;96.34;100815.00;4996512;28;20030;-80
2023/09/19 04:17:54;;;;;;;3.77;1.63;;;;;;;12.42;97.02;100808.94;4995643;28;20031;-81
2023/09/19 04:20:22;;;;;;;7.27;2.00;;;;;;;12.44;97.00;100826.22;4996055;28;20034;-80
2023/09/19 04:22:47;;;;;;;5.25;1.70;;;;;;;12.45;97.18;100827.06;4996409;28;20018;-80
2023/09/19 04:25:13;;;;;;;8.17;2.10;;;;;;;12.44;97.53;100838.41;4995818;28;20057;-80
2023/09/19 04:27:38;;;;;;;5.63;1.93;;;;;;;12.46;97.59;100842.66;4996514;28;20026;-80
2023/09/19 04:30:10;;;;;;;4.43;1.83;;;;;;;12.45;98.04;100840.94;4996456;28;20030;-80
2023/09/19 04:32:36;;;;;;;3.28;1.45;;;;;;;12.46;98.06;100847.00;4995660;28;20025;-80
2023/09/19 04:35:05;;;;;;;3.08;1.42;;;;;;;12.49;97.88;100857.34;4996217;28;20054;-80
2023/09/19 04:37:31;;;;;;;5.75;1.73;;;;;;;12.47;97.77;100865.19;4996441;28;20113;-80
2023/09/19 04:39:56;;;;;;;2.43;1.50;;;;;;;12.48;97.53;100861.72;4995878;28;20061;-81
2023/09/19 04:42:25;;;;;;;5.57;1.83;;;;;;;12.48;98.20;100863.44;4996028;28;20481;-80
2023/09/19 04:44:52;;;;;;;4.03;1.70;;;;;;;12.49;98.37;100872.97;4996626;28;20034;-80
2023/09/19 04:47:17;;;;;;;8.48;1.90;;;;;;;12.50;98.58;100874.69;4995534;28;20029;-80
2023/09/19 04:49:43;;;;;;;4.03;1.50;;;;;;;12.54;98.70;100878.06;4996348;28;20401;-80
2023/09/19 04:52:08;;;;;;;5.03;1.90;;;;;;;12.58;98.86;100888.38;4994826;28;20026;-80
2023/09/19 04:54:33;;;;;;;4.43;1.80;;;;;;;12.62;98.41;100887.41;4996024;28;20117;-80
2023/09/19 04:57:00;;;;;;;2.77;1.40;;;;;;;12.65;98.14;100886.50;4995608;28;20022;-80
2023/09/19 04:59:25;;;;;;;2.58;1.45;;;;;;;12.64;98.20;100882.16;4994727;28;20026;-80
2023/09/19 05:01:50;;;;;;;2.20;1.30;;;;;;;12.71;98.33;100888.97;4995424;28;20045;-80
2023/09/19 05:04:16;;;;;;;1.83;1.10;;;;;;;12.72;98.12;100887.19;5004766;28;20026;-80
2023/09/19 05:06:41;;;;;;;3.33;1.50;;;;;;;12.71;98.07;100886.34;5014585;28;20105;-81
2023/09/19 05:09:08;;;;;;;3.90;1.40;;;;;;;12.68;98.29;100891.63;5014922;28;20482;-80
2023/09/19 05:11:33;;;;;;;7.32;1.85;;;;;;;12.63;98.12;100883.06;5015178;28;20030;-80
2023/09/19 05:14:03;;;;;;;6.07;1.77;;;;;;;12.64;97.96;100882.16;5014054;28;20368;-81
2023/09/19 05:16:31;;;;;;;7.10;2.28;;;;;;;12.64;98.43;100884.78;5014823;28;20034;-81
2023/09/19 05:18:58;;;;;;;3.95;1.83;;;;;;;12.60;98.96;100883.16;5015138;28;20034;-80
2023/09/19 05:21:24;;;;;;;3.90;1.80;;;;;;;12.61;98.73;100879.66;5013721;28;20030;-80
2023/09/19 05:23:52;;;;;;;5.10;1.97;;;;;;;12.61;98.11;100890.06;4998692;28;20045;-80
2023/09/19 05:26:17;;;;;;;5.90;2.00;;;;;;;12.61;98.52;100898.72;4994648;28;20025;-81
2023/09/19 05:28:43;;;;;;;6.33;1.97;;;;;;;12.61;98.96;100892.69;4994332;28;20014;-79
2023/09/19 05:31:08;;;;;;;4.30;1.73;;;;;;;12.62;98.49;100894.34;4994874;28;20041;-80
2023/09/19 05:33:34;;;;;;;6.07;1.73;;;;;;;12.66;98.87;100901.22;4995189;28;20089;-80
2023/09/19 05:35:59;;;;;;;7.83;2.30;;;;;;;12.67;98.19;100892.53;4994221;28;20026;-79
2023/09/19 05:38:26;;;;;;;5.43;2.00;;;;;;;12.69;99.17;100898.56;4994560;28;20064;-80
2023/09/19 05:40:51;;;;;;;6.40;1.95;;;;;;;12.69;98.88;100901.16;4994679;28;20434;-81
2023/09/19 05:43:18;;;;;;;5.00;1.70;;;;;;;12.70;99.00;100899.41;4994365;28;20085;-80
2023/09/19 05:45:44;;;;;;;4.53;1.80;;;;;;;12.71;99.49;100907.19;5006418;28;20102;-80
2023/09/19 05:48:13;;;;;;;4.80;1.90;;;;;;;12.74;100.00;100898.44;5014246;28;20045;-82
2023/09/19 05:50:38;;;;;;;4.82;2.00;;;;;;;12.72;99.96;100901.06;5009520;28;20518;-79
2023/09/19 05:53:04;;;;;;;4.90;2.00;;;;;;;12.73;99.88;100897.56;4995342;28;20037;-80
2023/09/19 05:55:30;;;;;;;6.47;1.87;;;;;;;12.65;99.47;100878.66;4993662;28;20033;-80
2023/09/19 05:57:55;;;;;;;8.40;2.17;;;;;;;12.78;99.83;100887.03;4997073;28;20033;-79
2023/09/19 06:00:22;;;;;;;6.50;1.77;;;;;;;12.79;99.70;100893.97;5004390;28;20117;-80
2023/09/19 06:02:55;;;;;;;5.00;1.67;;;;;;;12.78;100.00;100884.44;5002046;28;20026;-80
2023/09/19 06:05:21;;;;;;;6.05;1.80;;;;;;;12.79;99.88;100894.84;5001183;28;20410;-80
2023/09/19 06:07:46;;;;;;;4.88;1.73;;;;;;;12.82;100.00;100905.19;5002779;28;20129;-80
2023/09/19 06:10:12;;;;;;;4.77;1.70;;;;;;;12.85;100.00;100900.78;5002688;28;20101;-80
2023/09/19 06:12:44;;;;;;;3.67;1.47;;;;;;;12.87;100.00;100899.88;5003575;28;20014;-79
2023/09/19 06:15:15;;;;;;;4.40;1.80;;;;;;;12.88;100.00;100906.78;5003794;28;20049;-82
2023/09/19 06:17:41;;;;;;;7.70;2.00;;;;;;;12.89;100.00;100905.03;5001816;28;20064;-80
2023/09/19 06:20:14;;;;;;;;;;;;;;;12.90;99.84;100907.59;5012724;28;20030;-80
2023/09/19 06:22:41;;;;;;;10.07;2.35;;;;;;;12.96;99.73;100904.84;5013771;28;19913;-80
2023/09/19 06:25:07;;;;;;;8.38;2.00;;;;;;;12.95;100.00;100907.47;5012736;28;20022;-81
2023/09/19 06:27:32;;;;;;;7.07;1.80;;;;;;;13.00;100.00;100910.84;5013564;28;20033;-80
2023/09/19 06:29:58;;;;;;;3.87;1.60;;;;;;;13.03;100.00;100915.09;4999447;28;20069;-80
2023/09/19 06:32:29;;;;;;;4.53;1.90;;;;;;;13.07;100.00;100921.97;5012495;28;20378;-80
2023/09/19 06:34:54;;;;;;;7.30;1.92;;;;;;;13.05;99.83;100919.41;5012149;28;20033;-80
2023/09/19 06:37:20;;;;;;;7.93;2.00;;;;;;;13.12;100.00;100927.91;4994316;28;20084;-80
2023/09/19 06:39:47;;;;;;;4.80;1.90;;;;;;;13.16;100.00;100931.31;4992821;28;20026;-80
2023/09/19 06:42:13;;;;;;;5.03;1.92;;;;;;;13.16;100.00;100928.72;4993615;28;20022;-81
2023/09/19 06:44:38;;;;;;;4.17;1.90;;;;;;;13.21;100.00;100927.69;4992730;28;20026;-80
2023/09/19 06:47:04;;;;;;;5.77;2.13;;;;;;;13.30;99.82;100937.03;4992161;28;20061;-81
2023/09/19 06:49:30;;;;;;;5.23;2.00;;;;;;;13.33;100.00;100939.56;4993713;28;20109;-81
2023/09/19 06:51:57;;;;;;;2.83;1.60;;;;;;;13.42;100.00;100944.56;4992819;28;20352;-81
2023/09/19 06:54:22;;;;;;;4.65;1.70;;;;;;;13.52;100.00;100950.41;4993570;28;20030;-81
2023/09/19 06:56:47;;;;;;;5.43;1.93;;;;;;;13.61;99.83;100940.63;4993750;28;20032;-81
2023/09/19 06:59:14;;;;;;;7.10;2.00;;;;;;;13.65;99.15;100940.50;4992708;28;20036;-81
2023/09/19 07:01:39;;;;;;;6.70;1.92;;;;;;;13.71;98.75;100944.69;4993396;28;20050;-81
2023/09/19 07:04:05;;;;;;;9.90;1.87;;;;;;;13.75;98.90;100930.69;4993086;28;20023;-81
2023/09/19 07:06:30;;;;;;;5.53;1.83;;;;;;;13.80;99.14;100933.16;4993698;28;20034;-81
2023/09/19 07:08:55;;;;;;;6.97;2.27;;;;;;;13.82;99.23;100939.22;4993389;28;20058;-81
2023/09/19 07:11:23;;;;;;;5.27;2.00;;;;;;;13.81;99.22;100934.88;4993320;28;20033;-81
2023/09/19 07:13:48;;;;;;;3.85;1.70;;;;;;;13.78;98.59;100941.06;4992875;28;20034;-81
2023/09/19 07:16:27;;;;;;;3.90;1.57;;;;;;;13.81;98.94;100951.38;4993001;28;20526;-80
2023/09/19 07:18:52;;;;;;;10.10;2.30;;;;;;;13.81;98.75;100945.31;4993036;28;20137;-81
2023/09/19 07:21:18;;;;;;;8.17;2.00;;;;;;;13.82;99.42;100939.22;4992684;28;20058;-80
2023/09/19 07:23:44;;;;;;;5.63;2.10;;;;;;;13.82;99.31;100947.03;4993658;28;20030;-81
2023/09/19 07:26:09;;;;;;;9.10;2.30;;;;;;;13.83;99.30;100946.97;4993174;28;20525;-81
2023/09/19 07:28:38;;;;;;;6.93;2.00;;;;;;;13.87;99.70;100946.00;4993266;28;20105;-80
2023/09/19 07:31:04;;;;;;;9.02;2.22;;;;;;;13.92;99.39;100940.66;4992826;28;20483;-80
2023/09/19 07:33:30;;;;;;;;;;;;;;;13.97;99.35;100941.38;4993758;28;20105;-80
2023/09/19 07:35:55;;;;;;;8.27;2.27;;;;;;;13.97;98.67;100930.94;5005154;28;20004;-81
2023/09/19 07:38:21;;;;;;;9.03;2.40;;;;;;;14.08;98.36;100945.44;5012358;28;20104;-80
2023/09/19 07:40:46;;;;;;;6.40;2.00;;;;;;;14.10;99.24;100941.03;5011957;28;20123;-81
2023/09/19 07:43:12;;;;;;;6.57;2.10;;;;;;;14.23;97.45;100942.41;5012527;28;20025;-81
2023/09/19 07:45:37;;;;;;;5.47;1.93;;;;;;;14.29;97.47;100951.81;5012982;28;20438;-81
2023/09/19 07:48:04;;;;;;;7.07;2.10;;;;;;;14.36;98.52;100941.13;5015446;28;20021;-81
2023/09/19 07:50:29;;;;;;;7.72;2.22;;;;;;;14.43;96.75;100952.25;5016896;28;20030;-80
2023/09/19 07:52:56;;;;;;;6.00;2.03;;;;;;;14.46;98.17;100946.97;5016616;28;20088;-81
2023/09/19 07:55:24;;;;;;;8.70;2.50;;;;;;;14.57;96.02;100945.78;5015550;28;20053;-81
2023/09/19 07:57:50;;;;;;;7.38;2.50;;;;;;;14.66;95.10;100953.31;5016677;28;20068;-81
2023/09/19 08:00:15;;;;;;;6.13;2.27;;;;;;;14.71;96.01;100938.38;5015851;28;20463;-80
2023/09/19 08:02:42;;;;;;;9.13;2.30;;;;;;;14.81;95.66;100946.78;5016047;28;20026;-80
2023/09/19 08:05:11;;;;;;;6.10;2.25;;;;;;;14.88;96.33;100939.63;5003949;28;20036;-80
2023/09/19 08:07:41;;;;;;;6.20;2.10;;;;;;;14.98;96.16;100957.56;5016957;28;20049;-80
2023/09/19 08:10:15;;;;;;;5.45;1.90;;;;;;;15.09;96.29;100958.97;5015643;28;20026;-79
2023/09/19 08:12:46;;;;;;;6.60;2.00;;;;;;;15.16;95.29;100952.66;5016465;28;20033;-80
2023/09/19 08:15:19;;;;;;;5.45;1.90;;;;;;;15.27;95.27;100962.75;5016418;28;20026;-78
2023/09/19 08:17:46;;;;;;;7.45;2.15;;;;;;;15.35;93.98;100959.88;5015494;28;20026;-80
2023/09/19 08:20:17;;;;;;;7.00;2.13;;;;;;;15.39;93.91;100949.25;5016139;28;20025;-80
2023/09/19 08:22:49;;;;;;;8.98;2.20;;;;;;;15.47;92.88;100958.63;5016082;28;20104;-80
2023/09/19 08:25:17;;;;;;;7.53;1.98;;;;;;;15.50;92.49;100958.50;5015019;28;20018;-79
2023/09/19 08:27:47;;;;;;;8.20;2.28;;;;;;;15.48;91.83;100948.09;5016092;28;20049;-79
2023/09/19 08:30:18;;;;;;;9.82;2.78;;;;;;;15.53;92.00;100954.03;5014955;28;20030;-79
2023/09/19 08:32:43;;;;;;;9.32;2.10;;;;;;;15.57;92.57;100947.78;5002339;28;20034;-79
2023/09/19 08:35:12;;;;;;;7.47;2.17;;;;;;;15.65;92.37;100954.53;4995923;28;20049;-80
2023/09/19 08:37:37;;;;;;;6.38;1.92;;;;;;;15.70;93.10;100950.84;4995521;28;20026;-80
2023/09/19 08:40:03;;;;;;;5.37;2.10;;;;;;;15.74;92.03;100956.81;4995728;28;20534;-80
2023/09/19 08:42:28;;;;;;;4.20;1.90;;;;;;;15.81;89.60;100941.75;4996089;28;20117;-80
2023/09/19 08:44:56;;;;;;;5.97;2.00;;;;;;;15.84;90.61;100949.47;4995550;28;20018;-80
2023/09/19 08:47:43;;;;;;;5.97;2.00;;;;;;;15.98;91.25;100952.50;4995776;28;20014;-80
2023/09/19 08:50:19;;;;;;;4.68;2.00;;;;;;;16.15;91.33;100961.50;4995496;28;20442;-80
2023/09/19 08:52:46;;;;;;;9.25;2.28;;;;;;;16.17;89.02;100960.53;4995312;28;20022;-80
2023/09/19 08:55:20;;;;;;;6.68;2.10;;;;;;;16.19;89.66;100955.22;4996342;28;20030;-82
2023/09/19 08:57:48;;;;;;;9.05;2.20;;;;;;;16.28;86.64;100957.50;4995696;28;20038;-82
2023/09/19 09:00:17;;;;;;;9.27;2.60;;;;;;;16.36;87.49;100965.06;5004096;28;20441;-81
2023/09/19 09:02:43;;;;;;;8.60;2.40;;;;;;;16.43;89.02;100944.75;5014739;28;20030;-82
2023/09/19 09:05:12;;;;;;;8.25;2.10;;;;;;;16.55;87.45;100948.69;5014667;28;20046;-82
2023/09/19 09:07:38;;;;;;;7.05;2.20;;;;;;;16.59;88.13;100951.13;5015239;28;20087;-81
2023/09/19 09:10:04;;;;;;;5.25;1.83;;;;;;;16.68;88.85;100952.50;5014899;28;20080;-77
2023/09/19 09:12:33;;;;;;;10.53;2.33;;;;;;;16.80;87.69;100952.03;5014324;28;20029;-82
2023/09/19 09:15:03;;;;;;;10.55;2.50;;;;;;;16.89;85.40;100953.44;5015202;28;20025;-82
2023/09/19 09:17:29;;;;;;;7.22;2.28;;;;;;;16.98;83.97;100952.25;5014656;28;20091;-82
2023/09/19 09:19:55;;;;;;;10.23;2.95;;;;;;;17.05;85.23;100943.22;5014464;28;20018;-82
2023/09/19 09:22:21;;;;;;;8.53;2.13;;;;;;;17.13;84.64;100951.59;5014626;28;20028;-82
2023/09/19 09:24:53;;;;;;;8.25;2.20;;;;;;;17.16;85.01;100955.03;5014378;28;20033;-82
2023/09/19 09:27:19;;;;;;;7.43;2.00;;;;;;;17.18;85.73;100961.06;5013285;28;20030;-82
2023/09/19 09:29:49;;;;;;;10.43;2.40;;;;;;;17.29;86.44;100953.59;4995074;28;20121;-81
2023/09/19 09:32:21;;;;;;;7.13;2.10;;;;;;;17.44;86.38;100952.97;4994992;28;20098;-82
2023/09/19 09:34:57;;;;;;;10.90;2.40;;;;;;;17.56;84.21;100946.34;4994560;28;20036;-82
2023/09/19 09:37:24;;;;;;;7.10;2.33;;;;;;;17.55;83.15;100936.75;4995133;28;20022;-81
2023/09/19 09:39:56;;;;;;;10.27;2.35;;;;;;;17.62;84.01;100934.72;4995056;28;20031;-82
2023/09/19 09:42:35;;;;;;;6.18;2.22;;;;;;;17.69;83.24;100936.16;4993801;28;20030;-80
2023/09/19 09:45:28;;;;;;;8.93;2.17;;;;;;;17.81;81.26;100936.53;4995144;28;20120;-82
2023/09/19 09:47:57;;;;;;;5.68;1.92;;;;;;;17.92;82.80;100936.91;4994391;28;20037;-82
2023/09/19 09:50:44;;;;;;;8.63;2.38;;;;;;;17.95;81.42;100941.19;4994795;28;20026;-83
2023/09/19 09:53:27;;;;;;;10.07;2.50;;;;;;;18.00;79.66;100952.34;4994858;28;20026;-83
2023/09/19 09:56:07;;;;;;;8.02;2.28;;;;;;;18.08;77.89;100949.38;4994742;28;20361;-82
2023/09/19 09:58:33;;;;;;;7.60;2.20;;;;;;;18.13;79.30;100947.38;5005615;28;20058;-81
2023/09/19 10:01:02;;;;;;;6.95;2.03;;;;;;;18.19;80.99;100934.00;5014480;28;20056;-83
2023/09/19 10:03:41;;;;;;;7.75;2.10;;;;;;;18.35;77.24;100934.97;5013912;28;20058;-83
2023/09/19 10:06:19;;;;;;;8.85;2.30;;;;;;;18.29;79.43;100947.56;5014369;28;20034;-83
2023/09/19 10:09:11;;;;;;;6.78;2.50;;;;;;;18.19;78.74;100947.97;5013051;28;20361;-82
2023/09/19 10:12:03;;;;;;;6.25;2.10;;;;;;;18.16;76.84;100957.75;5014048;28;20036;-81
2023/09/19 10:14:32;;;;;;;8.25;2.25;;;;;;;18.16;75.81;100944.63;5013975;28;20030;-81
2023/09/19 10:17:03;;;;;;;5.88;2.13;;;;;;;18.22;79.76;100947.00;5013017;28;20033;-82
2023/09/19 10:19:46;;;;;;;6.80;2.40;;;;;;;18.23;77.40;100943.44;5013971;28;20022;-82
2023/09/19 10:22:14;;;;;;;8.15;2.20;;;;;;;18.30;79.23;100943.97;5013460;28;20487;-82
2023/09/19 10:24:44;;;;;;;8.25;2.10;;;;;;;18.37;77.29;100929.66;5013225;28;20087;-81
2023/09/19 10:27:10;;;;;;;8.38;2.40;;;;;;;18.46;75.74;100939.72;5012134;28;20026;-82
2023/09/19 10:29:39;;;;;;;5.55;2.08;;;;;;;18.53;78.38;100924.53;5012335;28;20069;-82
2023/09/19 10:32:06;;;;;;;6.13;2.13;;;;;;;18.62;77.28;100947.75;5013132;28;20030;-82
2023/09/19 10:34:35;;;;;;;7.00;2.30;;;;;;;18.73;75.40;100935.84;5013233;28;20466;-82
2023/09/19 10:37:05;;;;;;;6.35;2.05;;;;;;;18.82;77.00;100936.28;5096977;22;20148;-80
2023/09/19 10:39:32;;;;;;;6.20;2.10;;;;;;;19.01;76.15;100935.41;5012588;28;20060;-82
2023/09/19 10:42:02;;;;;;;;;;;;;;;19.08;73.40;100938.59;5014019;28;20372;-83
2023/09/19 10:44:32;;;;;;;7.75;2.20;;;;;;;19.16;74.27;100931.16;5012467;28;19913;-82
2023/09/19 10:46:58;;;;;;;6.05;2.10;;;;;;;19.26;73.42;100942.06;5013387;28;20029;-82
2023/09/19 10:49:24;;;;;;;5.50;1.97;;;;;;;19.38;71.79;100940.59;5013007;28;20022;-83
2023/09/19 10:51:55;;;;;;;4.93;2.05;;;;;;;19.51;72.43;100923.25;5012578;28;20026;-82
2023/09/19 10:54:26;;;;;;;5.75;2.05;;;;;;;19.52;70.12;100922.31;5004741;28;20026;-82
2023/09/19 10:56:52;;;;;;;6.65;1.92;;;;;;;19.59;73.16;100925.50;4993780;28;20471;-83
2023/09/19 10:59:20;;;;;;;3.67;1.60;;;;;;;19.67;71.86;100919.81;4992405;28;20030;-82
2023/09/19 11:01:51;;;;;;;5.45;1.90;;;;;;;19.67;67.61;100920.66;4993568;28;20025;-83
2023/09/19 11:04:31;;;;;;;7.28;2.10;;;;;;;19.77;68.68;100921.03;4993436;28;20037;-83
2023/09/19 11:07:10;;;;;;;4.65;1.85;;;;;;;19.80;72.59;100913.00;4994057;28;20356;-83
2023/09/19 11:09:57;;;;;;;3.58;1.60;;;;;;;19.85;72.19;100900.41;4993600;28;20103;-83
2023/09/19 11:12:28;;;;;;;4.28;1.70;;;;;;;19.97;72.49;100898.94;4992041;28;20475;-82
2023/09/19 11:14:54;;;;;;;3.50;1.80;;;;;;;20.02;69.16;100899.53;4993339;28;20101;-83
2023/09/19 11:17:21;;;;;;;6.93;1.90;;;;;;;20.06;68.59;100892.31;4993383;28;20106;-82
2023/09/19 11:20:24;;;;;;;5.85;1.98;;;;;;;20.09;70.48;100889.50;4992837;28;20022;-83
2023/09/19 11:22:58;;;;;;;4.97;2.13;;;;;;;20.13;68.63;100882.28;4998790;28;20034;-83
2023/09/19 11:25:30;;;;;;;4.47;1.80;;;;;;;20.13;65.61;100885.78;4996932;28;20471;-81
2023/09/19 11:28:15;;;;;;;4.13;1.70;;;;;;;20.18;66.79;100886.38;5008559;28;20474;-82
2023/09/19 11:30:45;;;;;;;6.60;1.98;;;;;;;20.29;67.02;100867.34;5005297;28;20030;-83
2023/09/19 11:33:28;;;;;;;6.20;1.90;;;;;;;20.31;63.92;100869.88;5061284;22;20023;-83